createdAt,value
2018-12-16T00:00:30.838Z,3.65
2018-12-16T00:02:58.563Z,2.90
2018-12-16T00:05:26.089Z,2.47
2018-12-16T00:07:53.610Z,3.13
2018-12-16T00:10:21.115Z,4.17
2018-12-16T00:12:48.652Z,3.23
2018-12-16T00:15:16.173Z,4.30
2018-12-16T00:17:43.704Z,4.23
2018-12-16T00:20:11.247Z,5.53
2018-12-16T00:22:39.052Z,5.05
2018-12-16T00:25:07.263Z,6.70
2018-12-16T00:27:35.080Z,7.67
2018-12-16T00:30:02.608Z,6.63
2018-12-16T00:32:30.414Z,5.40
2018-12-16T00:34:57.913Z,5.70
2018-12-16T00:37:26.030Z,4.67
2018-12-16T00:39:53.551Z,6.20
2018-12-16T00:42:21.071Z,5.97
2018-12-16T00:44:48.621Z,4.33
2018-12-16T00:47:16.147Z,5.22
2018-12-16T00:49:43.666Z,5.87
2018-12-16T00:52:11.180Z,6.13
2018-12-16T00:54:38.865Z,7.07
2018-12-16T00:57:06.370Z,6.03
2018-12-16T00:59:33.888Z,6.40
2018-12-16T01:02:01.440Z,5.30
2018-12-16T01:04:29.107Z,5.03
2018-12-16T01:06:56.667Z,3.83
2018-12-16T01:09:24.486Z,4.03
2018-12-16T01:11:51.988Z,4.40
2018-12-16T01:14:19.508Z,4.40
2018-12-16T01:16:47.087Z,3.03
2018-12-16T01:19:14.637Z,4.37
2018-12-16T01:21:42.135Z,3.10
2018-12-16T01:24:09.833Z,4.00
2018-12-16T01:26:37.346Z,4.43
2018-12-16T01:29:04.866Z,3.90
2018-12-16T01:31:32.632Z,5.17
2018-12-16T01:34:00.122Z,5.50
2018-12-16T01:39:01.657Z,3.93
2018-12-16T01:41:29.203Z,3.67
2018-12-16T01:43:56.755Z,3.15
2018-12-16T01:46:24.538Z,3.20
2018-12-16T01:48:52.085Z,2.00
2018-12-16T01:51:19.605Z,1.70
2018-12-16T01:56:21.371Z,2.83
2018-12-16T01:58:48.937Z,2.33
2018-12-16T02:01:16.745Z,2.53
2018-12-16T02:03:44.255Z,2.72
2018-12-16T02:06:11.762Z,2.57
2018-12-16T02:08:39.388Z,2.30
2018-12-16T02:11:06.901Z,2.58
2018-12-16T02:13:34.835Z,2.02
2018-12-16T02:16:02.332Z,1.70
2018-12-16T02:18:29.849Z,2.95
2018-12-16T02:20:57.618Z,1.63
2018-12-16T02:23:25.145Z,1.82
2018-12-16T02:25:52.672Z,2.90
2018-12-16T02:28:20.442Z,3.20
2018-12-16T02:30:47.937Z,3.00
2018-12-16T02:33:15.440Z,2.87
2018-12-16T02:35:43.296Z,2.33
2018-12-16T02:38:10.801Z,2.17
2018-12-16T02:40:38.307Z,2.20
2018-12-16T02:43:06.076Z,1.97
2018-12-16T02:45:33.794Z,2.27
2018-12-16T02:48:01.289Z,3.77
2018-12-16T02:50:29.164Z,2.70
2018-12-16T02:53:04.340Z,3.00
2018-12-16T02:55:26.348Z,3.93
2018-12-16T02:57:54.090Z,5.03
2018-12-16T03:00:29.461Z,4.35
2018-12-16T03:02:56.982Z,4.60
2018-12-16T03:05:24.773Z,5.30
2018-12-16T03:07:52.316Z,5.83
2018-12-16T03:10:19.864Z,5.03
2018-12-16T03:12:47.639Z,5.00
2018-12-16T03:15:15.180Z,6.77
2018-12-16T03:17:42.973Z,6.70
2018-12-16T03:20:10.502Z,6.73
2018-12-16T03:22:38.388Z,8.23
2018-12-16T03:25:06.055Z,8.78
2018-12-16T03:27:33.571Z,9.47
2018-12-16T03:30:01.361Z,7.20
2018-12-16T03:32:29.247Z,10.70
2018-12-16T03:34:56.772Z,11.40
2018-12-16T03:37:31.673Z,12.00
2018-12-16T03:39:59.192Z,12.53
2018-12-16T03:42:26.726Z,10.17
2018-12-16T03:44:54.498Z,11.97
2018-12-16T03:47:22.003Z,10.90
2018-12-16T03:49:49.518Z,11.73
2018-12-16T03:52:17.294Z,12.67
2018-12-16T03:54:44.923Z,12.83
2018-12-16T03:57:12.437Z,13.83
2018-12-16T03:59:40.311Z,13.87
2018-12-16T04:02:07.818Z,13.80
2018-12-16T04:04:35.385Z,18.17
2018-12-16T04:07:18.192Z,19.97
2018-12-16T04:09:45.693Z,17.50
2018-12-16T04:12:13.215Z,12.20
2018-12-16T04:14:41.431Z,20.45
2018-12-16T04:17:09.132Z,34.47
2018-12-16T04:19:36.641Z,38.57
2018-12-16T04:22:04.467Z,34.27
2018-12-16T04:24:31.988Z,30.87
2018-12-16T04:26:59.503Z,26.87
2018-12-16T04:29:27.450Z,21.77
2018-12-16T04:31:55.007Z,21.27
2018-12-16T04:34:22.524Z,20.57
2018-12-16T04:36:50.419Z,21.03
2018-12-16T04:39:17.981Z,21.87
2018-12-16T04:41:45.518Z,23.27
2018-12-16T04:44:13.097Z,13.07
2018-12-16T04:46:40.617Z,14.70
2018-12-16T04:49:08.449Z,11.33
2018-12-16T04:51:35.978Z,13.20
2018-12-16T04:54:04.815Z,12.73
2018-12-16T04:56:32.329Z,12.77
2018-12-16T04:58:59.843Z,12.87
2018-12-16T05:01:27.560Z,9.30
2018-12-16T05:03:55.107Z,8.87
2018-12-16T05:06:22.636Z,9.87
2018-12-16T05:08:50.204Z,8.77
2018-12-16T05:11:17.842Z,10.03
2018-12-16T05:13:45.381Z,9.13
2018-12-16T05:16:13.230Z,7.73
2018-12-16T05:18:40.737Z,8.07
2018-12-16T05:21:08.557Z,7.07
2018-12-16T05:23:41.647Z,6.03
2018-12-16T05:26:09.453Z,6.60
2018-12-16T05:28:36.955Z,8.37
2018-12-16T05:31:04.481Z,7.73
2018-12-16T05:33:32.270Z,9.60
2018-12-16T05:35:59.780Z,9.47
2018-12-16T05:38:27.705Z,7.80
2018-12-16T05:40:55.236Z,8.70
2018-12-16T05:43:23.124Z,7.00
2018-12-16T05:45:50.645Z,5.20
2018-12-16T05:48:18.450Z,4.83
2018-12-16T05:50:45.995Z,4.13
2018-12-16T05:53:13.777Z,5.23
2018-12-16T05:55:49.444Z,4.90
2018-12-16T05:58:17.220Z,4.47
2018-12-16T06:00:44.746Z,5.50
2018-12-16T06:03:12.273Z,8.87
2018-12-16T06:05:40.178Z,7.90
2018-12-16T06:08:07.712Z,6.13
2018-12-16T06:10:35.248Z,3.67
2018-12-16T06:13:02.826Z,3.53
2018-12-16T06:15:30.344Z,7.00
2018-12-16T06:17:57.852Z,6.23
2018-12-16T06:20:25.613Z,6.20
2018-12-16T06:22:53.169Z,6.10
2018-12-16T06:25:23.658Z,4.27
2018-12-16T06:27:51.487Z,4.13
2018-12-16T06:30:20.145Z,3.30
2018-12-16T06:32:47.659Z,5.47
2018-12-16T06:35:15.379Z,3.10
2018-12-16T06:37:42.893Z,2.97
2018-12-16T06:43:03.872Z,3.40
2018-12-16T06:45:31.388Z,4.20
2018-12-16T06:47:58.902Z,4.70
2018-12-16T06:50:26.525Z,4.47
2018-12-16T06:52:54.036Z,3.03
2018-12-16T06:55:21.856Z,3.40
2018-12-16T06:57:49.363Z,1.67
2018-12-16T07:00:20.155Z,1.00
2018-12-16T07:06:11.167Z,0.80
2018-12-16T07:08:38.664Z,0.70
2018-12-16T07:11:06.336Z,1.37
2018-12-16T07:13:33.917Z,2.00
2018-12-16T07:16:01.536Z,2.77
2018-12-16T07:18:29.079Z,4.50
2018-12-16T07:20:56.572Z,3.53
2018-12-16T07:23:24.080Z,2.00
2018-12-16T07:25:51.965Z,1.70
2018-12-16T07:28:19.483Z,2.57
2018-12-16T07:30:47.015Z,1.83
2018-12-16T07:33:14.785Z,2.43
2018-12-16T07:35:53.076Z,4.30
2018-12-16T07:38:20.682Z,4.20
2018-12-16T07:40:48.180Z,3.83
2018-12-16T07:43:39.448Z,9.00
2018-12-16T07:46:22.078Z,5.40
2018-12-16T07:48:49.852Z,3.33
2018-12-16T07:51:23.947Z,3.83
2018-12-16T07:56:50.178Z,4.87
2018-12-16T08:12:30.226Z,1.60
2018-12-16T08:15:04.151Z,3.53
2018-12-16T08:17:31.681Z,2.33
2018-12-16T08:19:59.212Z,3.53
2018-12-16T08:22:26.943Z,3.43
2018-12-16T08:24:54.472Z,5.37
2018-12-16T08:27:21.975Z,2.00
2018-12-16T08:29:49.815Z,5.60
2018-12-16T08:32:17.342Z,2.33
2018-12-16T08:34:44.845Z,2.77
2018-12-16T08:37:12.487Z,3.53
2018-12-16T08:39:40.042Z,5.27
2018-12-16T08:42:07.575Z,2.57
2018-12-16T08:44:35.159Z,3.03
2018-12-16T08:47:02.672Z,2.83
2018-12-16T08:49:30.204Z,3.87
2018-12-16T08:51:57.706Z,4.90
2018-12-16T08:54:30.049Z,6.67
2018-12-16T08:56:54.799Z,4.57
2018-12-16T08:59:22.323Z,17.97
2018-12-16T09:01:49.847Z,27.40
2018-12-16T09:04:17.814Z,5.17
2018-12-16T09:06:45.325Z,4.03
2018-12-16T09:09:13.103Z,2.90
2018-12-16T09:11:40.880Z,10.20
2018-12-16T09:14:08.400Z,23.00
2018-12-16T09:16:35.915Z,3.23
2018-12-16T09:19:03.853Z,6.07
2018-12-16T09:21:31.460Z,6.60
2018-12-16T09:23:59.070Z,5.63
2018-12-16T09:26:26.598Z,4.47
2018-12-16T09:32:04.243Z,14.40
2018-12-16T09:34:31.801Z,20.60
2018-12-16T09:36:59.320Z,19.33
2018-12-16T09:39:27.135Z,12.83
2018-12-16T09:41:54.651Z,10.87
2018-12-16T09:44:22.472Z,9.57
2018-12-16T09:46:50.023Z,12.63
2018-12-16T09:49:17.527Z,14.47
2018-12-16T09:51:45.348Z,29.70
2018-12-16T09:54:12.861Z,31.47
2018-12-16T09:56:40.368Z,40.43
2018-12-16T09:59:08.002Z,31.27
2018-12-16T10:01:35.620Z,25.60
2018-12-16T10:04:03.165Z,21.23
2018-12-16T10:06:30.937Z,24.83
2018-12-16T10:08:59.093Z,33.33
2018-12-16T10:11:26.671Z,24.33
2018-12-16T10:13:54.395Z,30.13
2018-12-16T10:16:22.044Z,107.37
2018-12-16T10:18:49.580Z,20.23
2018-12-16T10:21:17.397Z,23.27
2018-12-16T10:23:44.923Z,19.10
2018-12-16T10:26:12.445Z,30.03
2018-12-16T10:28:40.164Z,70.40
2018-12-16T10:31:07.704Z,56.43
2018-12-16T10:33:35.238Z,65.67
2018-12-16T10:36:02.785Z,38.17
2018-12-16T10:38:30.291Z,15.47
2018-12-16T10:40:57.811Z,14.83
2018-12-16T10:43:31.196Z,28.03
2018-12-16T10:45:58.720Z,17.17
2018-12-16T10:48:26.249Z,20.53
2018-12-16T10:50:54.041Z,26.07
2018-12-16T10:53:21.737Z,24.23
2018-12-16T10:55:49.318Z,15.60
2018-12-16T10:58:17.115Z,15.87
2018-12-16T11:00:50.205Z,130.47
2018-12-16T11:03:18.081Z,30.73
2018-12-16T11:05:45.832Z,18.57
2018-12-16T11:08:13.377Z,13.47
2018-12-16T11:10:41.278Z,22.83
2018-12-16T11:13:08.850Z,17.90
2018-12-16T11:15:36.375Z,29.07
2018-12-16T11:18:04.251Z,11.77
2018-12-16T11:20:31.772Z,11.67
2018-12-16T11:22:59.306Z,18.77
2018-12-16T11:25:26.862Z,10.03
2018-12-16T11:27:54.577Z,9.80
2018-12-16T11:30:22.122Z,9.87
2018-12-16T11:32:50.005Z,37.03
2018-12-16T11:35:17.527Z,27.27
2018-12-16T11:37:45.049Z,19.50
2018-12-16T11:40:13.093Z,11.63
2018-12-16T11:42:40.601Z,14.00
2018-12-16T11:45:08.561Z,31.87
2018-12-16T11:47:36.089Z,18.83
2018-12-16T11:50:04.462Z,62.13
2018-12-16T11:52:31.976Z,25.67
2018-12-16T11:54:59.512Z,13.47
2018-12-16T11:57:27.109Z,11.70
2018-12-16T11:59:54.619Z,41.27
2018-12-16T12:02:22.358Z,87.20
2018-12-16T12:04:49.889Z,83.33
2018-12-16T12:07:17.858Z,33.20
2018-12-16T12:09:45.963Z,37.57
2018-12-16T12:12:13.504Z,16.50
2018-12-16T12:14:41.016Z,13.83
2018-12-16T12:17:08.536Z,20.40
2018-12-16T12:19:38.128Z,54.60
2018-12-16T12:22:05.773Z,82.53
2018-12-16T12:24:33.343Z,41.57
2018-12-16T12:27:00.980Z,41.33
2018-12-16T12:29:28.542Z,84.20
2018-12-16T12:31:56.107Z,143.63
2018-12-16T12:34:23.632Z,38.60
2018-12-16T12:36:51.444Z,126.10
2018-12-16T12:39:18.973Z,51.27
2018-12-16T12:41:46.489Z,41.00
2018-12-16T12:44:14.414Z,28.90
2018-12-16T12:46:41.935Z,18.50
2018-12-16T12:49:09.564Z,10.10
2018-12-16T12:51:37.520Z,13.77
2018-12-16T12:54:06.606Z,12.67
2018-12-16T12:56:34.315Z,27.93
2018-12-16T12:59:01.919Z,66.70
2018-12-16T13:01:29.436Z,60.33
2018-12-16T13:03:56.935Z,22.53
2018-12-16T13:06:24.945Z,9.73
2018-12-16T13:08:52.498Z,7.57
2018-12-16T13:11:20.021Z,8.70
2018-12-16T13:13:47.799Z,15.33
2018-12-16T13:16:15.330Z,12.10
2018-12-16T13:18:42.841Z,13.10
2018-12-16T13:21:10.394Z,8.40
2018-12-16T13:23:37.910Z,31.83
2018-12-16T13:26:05.576Z,41.27
2018-12-16T13:28:33.371Z,18.90
2018-12-16T13:31:00.886Z,14.20
2018-12-16T13:33:28.391Z,20.13
2018-12-16T13:35:55.946Z,11.87
2018-12-16T13:38:23.471Z,11.70
2018-12-16T13:40:50.991Z,18.87
2018-12-16T13:43:18.782Z,15.77
2018-12-16T13:45:46.356Z,11.17
2018-12-16T13:48:13.885Z,23.53
2018-12-16T13:50:41.393Z,41.67
2018-12-16T13:53:08.929Z,50.77
2018-12-16T13:55:40.902Z,58.23
2018-12-16T13:58:06.379Z,65.50
2018-12-16T14:00:33.893Z,15.00
2018-12-16T14:03:01.747Z,6.57
2018-12-16T14:05:29.259Z,11.43
2018-12-16T14:07:56.947Z,14.37
2018-12-16T14:10:24.725Z,14.53
2018-12-16T14:12:52.284Z,14.60
2018-12-16T14:15:19.802Z,11.63
2018-12-16T14:17:47.718Z,17.17
2018-12-16T14:20:15.255Z,15.43
2018-12-16T14:22:42.775Z,20.63
2018-12-16T14:25:10.698Z,15.30
2018-12-16T14:27:38.232Z,10.17
2018-12-16T14:30:08.419Z,23.73
2018-12-16T14:32:36.015Z,27.93
2018-12-16T14:35:04.965Z,19.27
2018-12-16T14:37:32.467Z,22.77
2018-12-16T14:40:00.073Z,13.57
2018-12-16T14:42:27.729Z,15.83
2018-12-16T14:44:55.570Z,18.47
2018-12-16T14:47:23.099Z,20.60
2018-12-16T14:49:57.018Z,21.53
2018-12-16T14:52:24.531Z,23.53
2018-12-16T14:54:52.061Z,22.10
2018-12-16T14:57:19.917Z,20.23
2018-12-16T14:59:47.447Z,21.93
2018-12-16T15:02:14.984Z,24.43
2018-12-16T15:04:42.518Z,28.33
2018-12-16T15:07:10.080Z,23.10
2018-12-16T15:09:37.706Z,25.53
2018-12-16T15:12:05.290Z,22.17
2018-12-16T15:14:33.141Z,26.50
2018-12-16T15:17:00.675Z,25.70
2018-12-16T15:19:28.232Z,22.93
2018-12-16T15:21:56.009Z,30.00
2018-12-16T15:24:23.554Z,30.77
2018-12-16T15:26:52.613Z,24.37
2018-12-16T15:29:20.641Z,29.60
2018-12-16T15:31:48.169Z,29.83
2018-12-16T15:34:15.697Z,37.57
2018-12-16T15:36:43.522Z,46.30
2018-12-16T15:39:11.669Z,43.33
2018-12-16T15:41:39.237Z,49.10
2018-12-16T15:44:07.038Z,54.27
2018-12-16T15:46:34.562Z,46.93
2018-12-16T15:49:02.115Z,57.30
2018-12-16T15:51:29.998Z,50.47
2018-12-16T15:53:57.617Z,46.00
2018-12-16T15:56:25.284Z,64.43
2018-12-16T15:58:53.193Z,54.60
2018-12-16T16:01:20.722Z,42.63
2018-12-16T16:03:48.260Z,54.30
2018-12-16T16:06:16.073Z,37.30
2018-12-16T16:08:43.849Z,51.20
2018-12-16T16:11:11.376Z,36.80
2018-12-16T16:13:38.932Z,40.20
2018-12-16T16:16:06.489Z,39.93
2018-12-16T16:18:34.275Z,41.87
2018-12-16T16:21:01.814Z,43.03
2018-12-16T16:23:29.600Z,52.63
2018-12-16T16:25:57.238Z,49.47
2018-12-16T16:28:25.119Z,57.53
2018-12-16T16:30:54.243Z,48.20
2018-12-16T16:33:22.425Z,57.00
2018-12-16T16:35:50.251Z,50.83
2018-12-16T16:38:17.801Z,53.90
2018-12-16T16:40:45.680Z,63.83
2018-12-16T16:43:13.443Z,47.20
2018-12-16T16:45:40.983Z,50.17
2018-12-16T16:48:08.544Z,56.00
2018-12-16T16:50:36.202Z,53.47
2018-12-16T16:53:03.863Z,56.10
2018-12-16T16:55:31.525Z,61.93
2018-12-16T16:57:59.413Z,67.30
2018-12-16T17:00:26.938Z,65.53
2018-12-16T17:02:54.472Z,63.17
2018-12-16T17:05:22.293Z,62.17
2018-12-16T17:07:49.831Z,54.30
2018-12-16T17:10:17.354Z,49.10
2018-12-16T17:12:44.954Z,58.63
2018-12-16T17:15:12.547Z,49.50
2018-12-16T17:17:40.094Z,52.00
2018-12-16T17:20:08.095Z,44.93
2018-12-16T17:22:35.752Z,55.47
2018-12-16T17:25:03.439Z,47.60
2018-12-16T17:27:31.327Z,49.33
2018-12-16T17:29:58.864Z,71.23
2018-12-16T17:32:26.496Z,38.63
2018-12-16T17:34:54.345Z,32.37
2018-12-16T17:37:21.873Z,57.37
2018-12-16T17:39:49.447Z,53.73
2018-12-16T17:42:16.988Z,66.67
2018-12-16T17:44:47.571Z,37.13
2018-12-16T17:47:15.115Z,37.17
2018-12-16T17:49:42.628Z,30.47
2018-12-16T17:52:10.182Z,39.70
2018-12-16T17:54:37.744Z,47.87
2018-12-16T17:57:05.417Z,43.67
2018-12-16T17:59:32.934Z,37.27
2018-12-16T18:02:00.782Z,28.40
2018-12-16T18:04:28.622Z,88.33
2018-12-16T18:06:56.182Z,44.43
2018-12-16T18:09:23.705Z,30.50
2018-12-16T18:11:51.281Z,36.80
2018-12-16T18:14:19.081Z,35.97
2018-12-16T18:16:46.608Z,41.20
2018-12-16T18:19:14.161Z,40.83
2018-12-16T18:21:42.039Z,37.37
2018-12-16T18:24:09.585Z,37.43
2018-12-16T18:26:43.781Z,37.23
2018-12-16T18:29:06.930Z,166.30
2018-12-16T18:31:34.473Z,50.17
2018-12-16T18:34:02.007Z,31.87
2018-12-16T18:36:29.547Z,22.70
2018-12-16T18:38:57.192Z,22.53
2018-12-16T18:41:24.726Z,34.60
2018-12-16T18:43:52.505Z,31.30
2018-12-16T18:46:20.077Z,28.33
2018-12-16T18:48:47.606Z,31.53
2018-12-16T18:51:15.494Z,34.17
2018-12-16T18:53:43.049Z,31.47
2018-12-16T18:56:10.613Z,27.50
2018-12-16T18:58:38.425Z,33.37
2018-12-16T19:01:05.942Z,24.20
2018-12-16T19:03:33.454Z,31.20
2018-12-16T19:06:01.023Z,25.50
2018-12-16T19:08:28.753Z,30.07
2018-12-16T19:10:56.277Z,35.40
2018-12-16T19:13:24.165Z,37.30
2018-12-16T19:15:51.689Z,29.63
2018-12-16T19:18:19.263Z,33.57
2018-12-16T19:20:46.803Z,31.80
2018-12-16T19:23:14.312Z,30.67
2018-12-16T19:25:42.295Z,30.67
2018-12-16T19:28:10.357Z,31.83
2018-12-16T19:30:37.887Z,87.27
2018-12-16T19:33:05.439Z,50.87
2018-12-16T19:35:33.004Z,34.93
2018-12-16T19:38:02.368Z,31.03
2018-12-16T19:40:30.093Z,36.40
2018-12-16T19:42:57.949Z,29.50
2018-12-16T19:45:25.461Z,27.83
2018-12-16T19:47:52.973Z,95.87
2018-12-16T19:50:20.819Z,33.27
2018-12-16T19:52:48.349Z,33.33
2018-12-16T19:55:16.496Z,34.53
2018-12-16T19:57:44.315Z,32.03
2018-12-16T20:00:11.859Z,33.37
2018-12-16T20:02:39.405Z,32.23
2018-12-16T20:05:09.983Z,32.03
2018-12-16T20:07:37.495Z,31.70
2018-12-16T20:10:05.862Z,33.87
2018-12-16T20:12:33.669Z,35.20
2018-12-16T20:15:01.489Z,38.07
2018-12-16T20:17:29.000Z,34.37
2018-12-16T20:19:56.532Z,25.87
2018-12-16T20:22:24.200Z,27.57
2018-12-16T20:24:51.711Z,25.57
2018-12-16T20:27:19.310Z,25.03
2018-12-16T20:29:47.088Z,25.53
2018-12-16T20:32:14.614Z,36.30
2018-12-16T20:34:42.151Z,23.33
2018-12-16T20:37:10.261Z,28.53
2018-12-16T20:39:37.781Z,31.23
2018-12-16T20:42:05.442Z,32.23
2018-12-16T20:44:33.149Z,30.70
2018-12-16T20:47:00.697Z,31.80
2018-12-16T20:49:28.232Z,29.20
2018-12-16T20:51:56.050Z,27.90
2018-12-16T20:54:23.567Z,30.80
2018-12-16T20:56:51.090Z,34.20
2018-12-16T20:59:18.874Z,30.47
2018-12-16T21:01:46.417Z,30.97
2018-12-16T21:04:13.938Z,27.20
2018-12-16T21:06:41.507Z,29.70
2018-12-16T21:09:09.023Z,25.27
2018-12-16T21:11:42.570Z,24.90
2018-12-16T21:14:15.959Z,35.20
2018-12-16T21:16:48.985Z,30.17
2018-12-16T21:19:16.787Z,35.40
2018-12-16T21:21:44.301Z,26.77
2018-12-16T21:24:11.844Z,23.97
2018-12-16T21:26:39.564Z,27.83
2018-12-16T21:29:07.129Z,30.47
2018-12-16T21:31:34.651Z,21.80
2018-12-16T21:34:02.451Z,30.87
2018-12-16T21:36:29.966Z,23.20
2018-12-16T21:38:57.476Z,20.50
2018-12-16T21:41:25.273Z,22.83
2018-12-16T21:43:52.797Z,20.07
2018-12-16T21:46:20.317Z,15.87
2018-12-16T21:48:48.238Z,24.27
2018-12-16T21:51:15.754Z,25.97
2018-12-16T21:53:43.281Z,28.77
2018-12-16T21:56:11.030Z,28.37
2018-12-16T21:58:38.547Z,25.03
2018-12-16T22:01:06.076Z,22.90
2018-12-16T22:03:33.608Z,19.30
2018-12-16T22:06:01.185Z,27.17
2018-12-16T22:08:28.740Z,21.13
2018-12-16T22:10:56.347Z,22.00
2018-12-16T22:13:23.869Z,27.03
2018-12-16T22:15:51.480Z,19.87
2018-12-16T22:18:19.004Z,25.53
2018-12-16T22:20:46.805Z,27.43
2018-12-16T22:23:14.343Z,24.63
2018-12-16T22:25:42.184Z,20.27
2018-12-16T22:28:09.718Z,21.73
2018-12-16T22:30:37.543Z,20.57
2018-12-16T22:33:05.083Z,24.50
2018-12-16T22:35:34.372Z,26.40
2018-12-16T22:38:01.902Z,25.70
2018-12-16T22:40:29.941Z,26.67
2018-12-16T22:42:57.807Z,27.77
2018-12-16T22:45:25.320Z,30.47
2018-12-16T22:47:53.327Z,21.57
2018-12-16T22:50:20.877Z,23.13
2018-12-16T22:52:48.396Z,31.00
2018-12-16T22:55:16.215Z,21.70
2018-12-16T22:57:47.084Z,18.30
2018-12-16T23:00:15.719Z,20.10
2018-12-16T23:02:43.467Z,26.27
2018-12-16T23:05:10.999Z,18.47
2018-12-16T23:07:38.523Z,19.03
2018-12-16T23:10:06.311Z,16.13
2018-12-16T23:12:33.853Z,17.60
2018-12-16T23:15:01.376Z,20.07
2018-12-16T23:17:29.265Z,20.93
2018-12-16T23:20:17.575Z,20.90
2018-12-16T23:22:45.170Z,19.90
2018-12-16T23:25:12.706Z,17.27
2018-12-16T23:27:40.224Z,18.90
2018-12-16T23:30:08.747Z,17.80
2018-12-16T23:32:36.304Z,17.13
2018-12-16T23:35:04.492Z,19.57
2018-12-16T23:37:32.229Z,17.37
2018-12-16T23:39:59.753Z,18.77
2018-12-16T23:42:27.265Z,22.30
2018-12-16T23:44:55.249Z,14.93
2018-12-16T23:47:22.789Z,17.33
2018-12-16T23:49:50.311Z,15.40
2018-12-16T23:52:19.562Z,18.10
2018-12-16T23:54:47.072Z,17.03
2018-12-16T23:57:14.611Z,16.43
2018-12-16T23:59:42.346Z,16.83
